Hit Tracker is now ESPN Home Run Tracker! Hit Tracker founder Greg Rybarczyk is now collaborating with the ESPN Stats & Information Group to continue tracking all MLB home runs, and helping baseball fans know "How Far It Really Went!™" Please credit any information on this site to ESPN Stats & Information Group. For more information and analysis on home runs, please contact founder Greg Rybarczyk. E-Mail ESPN Home Run Tracker
Main Page | Ballparks | Park Overlays | Glossary | Highlight Homers | Feedback | Bio | 3 Types of HR's | AAA Home Run Derby Last Updated: June 23, 2017, 10:41 pm PST
If you want to know "How Far It Really Went!", then you've come to the right place! Welcome to the ESPN Home Run Tracker, where you can find accurate, transparently verifiable distances for every home run hit in MLB games. Please also check out the ESPN MLB Scoreboard throughout the 2017 season! Contact us at grybar@hittrackeronline.com.
Season:
Ballpark detail for Minute Maid Park
Ballpark # of Home Runs HR per game Avg.
True
Distance
Avg.
Speed
Off
Bat
Avg.
Std.
Dist.
Minute Maid Park 110 2.82 387.5 102.5 386.3

Scatter Plot of Home Runs Minute Maid Park
 Overlay Ballpark:
Without range rings   With range rings

2017 Season Home Runs for Minute Maid Park
Click headers to sort
Date Video Path Hitter Hitter
Team
Pitcher Pitcher
Team
INN Ballpark Type/
Luck
 ^
True
Dist.
Speed
Off
Bat
Elev.
Angle
Horiz.
Angle
Apex Impact Due To: Std.
Dist.
#
Parks
Wind Temp. Alt.
04/09/17 Video View Marisnick, Jake HOU Herrera, Kelvin KC 9 Minute Maid ... JE 343 99.9 25.3 126.0 57 0 0 0 342 7
04/09/17 Video View Gonzalez, Marwin HOU Wood, Travis KC 7 Minute Maid ... JE 345 98.3 25.2 116.9 58 0 0 0 345 1
04/08/17 Video View Perez, Salvador KC Gregerson, Luke HOU 8 Minute Maid ... JE 361 107.0 21.5 118.0 50 0 0 0 361 7
04/05/17 Video View Springer, George HOU De Jong, Chase SEA 13 Minute Maid ... JE 353 95.7 36.8 104.1 126 0 -2 0 355 1
04/04/17 Video View McCann, Brian HOU Iwakuma, Hisashi SEA 3 Minute Maid ... JE 362 99.0 24.8 107.6 64 -1 0 0 363 1
04/18/17 Video View Simmons, Andrelton LAA Musgrove, Joe HOU 2 Minute Maid ... JE 350 94.7 30.6 65.3 81 0 0 0 350 9
04/19/17 Video View Reddick, Josh HOU Morin, Mike LAA 7 Minute Maid ... JE 347 93.4 33.1 67.2 92 0 1 0 346 5
04/29/17 Video View Davis, Khris OAK Harris, Will HOU 8 Minute Maid ... JE 369 100.6 25.3 69.8 66 0 0 0 369 12
05/02/17 Video View Gallo, Joey TEX Fiers, Mike HOU 2 Minute Maid ... JE/L 352 91.3 33.0 105.8 92 7 1 0 343 0
05/02/17 Video View Altuve, Jose HOU Claudio, Alex TEX 4 Minute Maid ... JE 357 93.4 31.3 66.0 81 12 1 0 344 1
05/02/17 Video View Mazara, Nomar TEX Gregerson, Luke HOU 9 Minute Maid ... JE 353 94.1 29.5 112.7 75 6 0 0 347 1
05/03/17 Video View Correa, Carlos HOU Martinez, Nick TEX 2 Minute Maid ... JE 344 94.9 30.5 60.3 77 0 0 0 344 14
05/03/17 Video View McCann, Brian HOU Martinez, Nick TEX 2 Minute Maid ... JE 353 106.5 21.4 58.4 48 0 0 0 352 6
05/03/17 Video View Gonzalez, Marwin HOU Martinez, Nick TEX 6 Minute Maid ... JE 427 110.0 19.9 92.1 64 0 0 0 427 27
05/09/17 Video View Reddick, Josh HOU Colon, Bartolo ATL 5 Minute Maid ... JE 429 106.5 24.3 83.2 82 1 1 0 427 28
05/10/17 Video View Garcia, Adonis ATL Musgrove, Joe HOU 4 Minute Maid ... JE 362 96.6 28.1 71.2 76 0 0 0 362 8
05/19/17 Video View Encarnacion, Edwin CLE Morton, Charlie HOU 4 Minute Maid ... JE 356 102.5 24.2 120.4 57 0 0 0 356 10
05/19/17 Video View Correa, Carlos HOU Bauer, Trevor CLE 6 Minute Maid ... JE 345 94.7 29.3 64.1 73 0 0 0 345 3
05/21/17 Video View Altuve, Jose HOU Salazar, Danny CLE 4 Minute Maid ... JE 345 94.7 28.8 115.3 72 0 0 0 345 1
05/21/17 Video View Bregman, Alex HOU McAllister, Zach CLE 9 Minute Maid ... JE 346 93.0 30.9 110.5 82 0 1 0 346 1
05/23/17 Video View Centeno, Juan HOU Zimmermann, Jordan DET 4 Minute Maid ... JE 414 102.0 28.2 94.5 100 0 0 0 414 23
05/24/17 Video View Iglesias, Jose DET Jankowski, Jordan HOU 9 Minute Maid ... JE/L 355 93.8 29.1 105.3 79 0 0 0 355 1
05/24/17 Video View Bregman, Alex HOU Wilson, Justin DET 9 Minute Maid ... JE 348 94.4 28.2 109.8 72 0 0 0 348 1
05/25/17 Video View Upton, Justin DET Harris, Will HOU 7 Minute Maid ... JE 355 106.6 21.7 122.8 48 0 0 0 355 6
05/25/17 Video View Marisnick, Jake HOU Wilson, Alex DET 8 Minute Maid ... JE 426 104.5 25.7 92.6 90 0 1 0 425 27
05/28/17 Video View Schoop, Jonathan BAL McCullers, Lance HOU 1 Minute Maid ... JE 329 95.7 40.1 113.8 133 0 1 0 328 1
06/09/17 Video View Maldonado, Martin LAA Martes, Francis HOU 7 Minute Maid ... JE 392 99.5 28.3 101.5 88 0 1 0 391 18
06/11/17 Video View Pujols, Albert LAA Paulino, David HOU 1 Minute Maid ... JE 410 101.8 29.1 97.2 102 0 0 0 410 28
06/13/17 Video View Springer, George HOU Martinez, Nick TEX 1 Minute Maid ... JE 428 111.8 19.3 94.0 61 0 0 0 428 27
06/13/17 Video View Odor, Rougned TEX Devenski, Chris HOU 7 Minute Maid ... JE 366 107.8 20.6 68.4 48 0 0 0 365 8
06/13/17 Video View Odor, Rougned TEX Gregerson, Luke HOU 8 Minute Maid ... JE 347 94.4 29.3 113.6 75 0 0 0 347 1
06/14/17 Video View Fisher, Derek HOU Jeffress, Jeremy TEX 6 Minute Maid ... JE 337 91.9 34.6 114.0 95 0 0 0 336 1
06/14/17 Video View Marisnick, Jake HOU Jeffress, Jeremy TEX 6 Minute Maid ... JE 339 91.5 34.8 109.7 99 0 1 0 338 0
06/17/17 Video View Young, Chris BOS Paulino, David HOU 5 Minute Maid ... JE 360 100.2 24.2 109.9 60 0 0 0 360 1
04/08/17 Video View Hosmer, Eric KC Gregerson, Luke HOU 8 Minute Maid ... ND 428 113.2 22.0 75.0 67 0 0 0 427 30
04/07/17 Video View Perez, Salvador KC Fiers, Mike HOU 2 Minute Maid ... ND 400 105.9 30.6 122.5 93 2 1 0 397 30
04/06/17 Video View Gonzalez, Marwin HOU Miranda, Ariel SEA 3 Minute Maid ... ND 369 99.8 30.1 119.5 83 0 0 0 369 30
04/06/17 Video View Haniger, Mitch SEA Musgrove, Joe HOU 3 Minute Maid ... ND 401 103.0 29.1 108.1 94 0 0 0 400 30
04/06/17 Video View Springer, George HOU Miranda, Ariel SEA 1 Minute Maid ... ND 427 109.2 25.8 107.3 85 0 1 0 426 30
04/03/17 Video View Correa, Carlos HOU Hernandez, Felix SEA 4 Minute Maid ... ND 424 111.0 31.2 120.8 108 0 1 0 424 30
04/03/17 Video View Springer, George HOU Hernandez, Felix SEA 1 Minute Maid ... ND 378 98.2 30.7 108.3 93 0 2 0 376 22
04/18/17 Video View Gurriel, Yulieski HOU Nolasco, Ricky LAA 3 Minute Maid ... ND 416 106.8 27.9 109.8 92 0 1 0 415 30
04/18/17 Video View Pujols, Albert LAA Musgrove, Joe HOU 5 Minute Maid ... ND 377 104.7 37.3 115.0 141 0 1 0 375 30
04/20/17 Video View Marisnick, Jake HOU Shoemaker, Matt LAA 5 Minute Maid ... ND 415 109.8 25.7 114.1 78 0 1 0 415 30
04/29/17 Video View Lowrie, Jed OAK Musgrove, Joe HOU 4 Minute Maid ... ND 393 103.4 30.7 64.3 96 0 0 0 392 30
05/02/17 Video View DeShields, Delino TEX Fiers, Mike HOU 1 Minute Maid ... ND 376 99.8 32.0 124.9 87 9 1 0 365 30
05/02/17 Video View Andrus, Elvis TEX Fiers, Mike HOU 4 Minute Maid ... ND 403 103.1 28.8 111.7 87 8 1 0 394 30
05/02/17 Video View Lucroy, Jonathan TEX Fiers, Mike HOU 4 Minute Maid ... ND 400 100.7 32.9 110.4 107 15 1 0 384 30
05/04/17 Video View Odor, Rougned TEX Musgrove, Joe HOU 1 Minute Maid ... ND 382 103.2 28.3 59.6 78 1 0 0 381 30
05/09/17 Video View Beltran, Carlos HOU Colon, Bartolo ATL 1 Minute Maid ... ND 429 108.7 26.8 72.9 91 0 1 0 428 30
05/21/17 Video View Gomes, Yan CLE Musgrove, Joe HOU 3 Minute Maid ... ND 428 110.8 29.0 116.5 99 0 1 0 427 30
05/23/17 Video View Gurriel, Yulieski HOU Zimmermann, Jordan DET 2 Minute Maid ... ND 400 104.1 25.7 106.2 77 0 1 0 399 30
05/23/17 Video View Mahtook, Mikie DET Feliz, Michael HOU 7 Minute Maid ... ND 371 101.4 27.3 117.8 72 0 0 0 371 27
05/25/17 Video View Correa, Carlos HOU Verlander, Justin DET 4 Minute Maid ... ND 385 104.7 26.8 120.7 72 1 0 0 383 30
05/26/17 Video View Beltran, Carlos HOU Gausman, Kevin BAL 6 Minute Maid ... ND 406 105.1 32.1 68.7 114 0 1 0 405 30
05/26/17 Video View Marisnick, Jake HOU Gausman, Kevin BAL 3 Minute Maid ... ND 416 107.3 30.4 113.0 105 0 1 0 416 30
05/27/17 Video View Springer, George HOU Miley, Wade BAL 4 Minute Maid ... ND 455 114.6 21.3 97.4 75 0 0 0 454 30
05/28/17 Video View Springer, George HOU Asher, Alec BAL 2 Minute Maid ... ND 422 108.7 24.0 103.6 76 0 0 0 422 30
06/09/17 Video View Bregman, Alex HOU Shoemaker, Matt LAA 7 Minute Maid ... ND 386 104.8 35.9 118.7 128 0 3 0 383 30
06/16/17 Video View McCann, Brian HOU Pomeranz, Drew BOS 7 Minute Maid ... ND 404 104.9 33.0 70.0 121 0 1 0 403 30
06/18/17 Video View Correa, Carlos HOU Price, David BOS 5 Minute Maid ... ND 397 109.2 24.9 120.0 68 0 0 0 397 30
06/18/17 Video View Bogaerts, Xander BOS Musgrove, Joe HOU 6 Minute Maid ... ND 366 100.2 28.3 120.4 74 0 0 0 365 27
06/18/17 Video View Marisnick, Jake HOU Price, David BOS 6 Minute Maid ... ND 462 112.7 23.7 96.2 90 0 0 0 462 30
04/09/17 Video View Moss, Brandon KC Devenski, Chris HOU 9 Minute Maid ... PL 408 111.1 20.8 76.5 59 0 0 0 408 29
04/09/17 Video View Moustakas, Mike KC McCullers, Lance HOU 6 Minute Maid ... PL 385 114.3 19.7 66.0 48 0 0 0 385 22
04/09/17 Video View Perez, Salvador KC McCullers, Lance HOU 2 Minute Maid ... PL 404 105.6 35.6 101.6 150 0 1 0 403 30
04/09/17 Video View Springer, George HOU Karns, Nathan KC 1 Minute Maid ... PL 409 102.2 31.6 81.2 118 0 1 0 408 28
04/08/17 Video View Cuthbert, Cheslor KC Keuchel, Dallas HOU 5 Minute Maid ... PL 379 108.8 21.7 114.4 54 0 1 0 378 20
04/08/17 Video View McCann, Brian HOU Duffy, Danny KC 3 Minute Maid ... PL 399 102.6 29.2 71.1 93 1 1 0 397 30
04/05/17 Video View Segura, Jean SEA Morton, Charlie HOU 5 Minute Maid ... PL 358 98.5 27.3 64.0 69 0 0 0 358 15
04/04/17 Video View Gonzalez, Marwin HOU Iwakuma, Hisashi SEA 6 Minute Maid ... PL 363 98.0 26.6 107.7 72 -3 1 0 366 4
04/18/17 Video View Springer, George HOU Nolasco, Ricky LAA 3 Minute Maid ... PL 451 110.8 22.6 86.7 82 0 0 0 450 30
04/20/17 Video View Beltran, Carlos HOU Shoemaker, Matt LAA 1 Minute Maid ... PL 377 103.2 25.1 66.7 66 0 0 0 376 24
04/20/17 Video View Trout, Mike LAA Devenski, Chris HOU 9 Minute Maid ... PL 363 98.5 37.5 104.0 137 0 1 0 362 3
04/28/17 Video View Davis, Khris OAK Morton, Charlie HOU 1 Minute Maid ... PL 431 108.3 23.0 83.2 77 0 0 0 431 28
04/28/17 Video View Davis, Khris OAK Morton, Charlie HOU 3 Minute Maid ... PL 388 102.2 27.7 68.7 81 0 0 0 387 30
04/28/17 Video View Gurriel, Yulieski HOU Valdez, Cesar OAK 7 Minute Maid ... PL 367 99.0 26.8 111.1 71 0 0 0 367 13
04/29/17 Video View Altuve, Jose HOU Doolittle, Sean OAK 8 Minute Maid ... PL 344 93.6 31.4 115.7 82 0 1 0 343 1
04/30/17 Video View Gonzalez, Marwin HOU Montas, Frankie OAK 8 Minute Maid ... PL 347 99.3 37.9 62.9 128 -8 1 0 353 29
05/01/17 Video View Napoli, Mike TEX McCullers, Lance HOU 4 Minute Maid ... PL 433 105.1 29.9 85.5 116 0 2 0 430 29
05/02/17 Video View Gonzalez, Marwin HOU Claudio, Alex TEX 5 Minute Maid ... PL 403 103.0 25.4 77.6 77 2 0 0 400 27
05/02/17 Video View Gonzalez, Marwin HOU Kela, Keone TEX 8 Minute Maid ... PL 344 96.7 38.7 60.4 122 4 1 0 338 15
05/03/17 Video View Reddick, Josh HOU Bass, Anthony TEX 8 Minute Maid ... PL 361 99.7 25.7 66.5 65 0 0 0 360 10
05/04/17 Video View Gonzalez, Marwin HOU Griffin, A.J. TEX 4 Minute Maid ... PL/L 383 97.4 29.2 80.4 93 0 1 0 383 19
05/04/17 Video View Gallo, Joey TEX Gregerson, Luke HOU 8 Minute Maid ... PL 432 108.9 23.5 81.2 81 -1 0 0 433 30
05/04/17 Video View Andrus, Elvis TEX Feliz, Michael HOU 9 Minute Maid ... PL 404 105.8 22.2 80.4 66 1 0 0 402 26
05/09/17 Video View Correa, Carlos HOU Colon, Bartolo ATL 1 Minute Maid ... PL 435 108.8 21.7 90.0 73 -1 0 0 435 29
05/10/17 Video View Freeman, Freddie ATL Musgrove, Joe HOU 4 Minute Maid ... PL 399 100.7 28.9 101.6 95 0 0 0 399 28
05/19/17 Video View Kipnis, Jason CLE Morton, Charlie HOU 5 Minute Maid ... PL 387 106.2 22.6 72.1 60 0 0 0 386 25
05/19/17 Video View Reddick, Josh HOU Bauer, Trevor CLE 3 Minute Maid ... PL 397 107.0 24.3 68.8 68 0 1 0 397 29
05/19/17 Video View Chisenhall, Lonnie CLE Morton, Charlie HOU 6 Minute Maid ... PL 370 98.7 30.2 65.5 86 0 0 0 370 27
05/20/17 Video View Chisenhall, Lonnie CLE Fiers, Mike HOU 4 Minute Maid ... PL 446 108.6 24.8 85.0 90 0 1 0 444 30
05/21/17 Video View Beltran, Carlos HOU Salazar, Danny CLE 2 Minute Maid ... PL 372 98.8 35.2 72.5 122 0 1 0 371 23
05/21/17 Video View Gonzalez, Marwin HOU McAllister, Zach CLE 9 Minute Maid ... PL 392 100.6 31.9 74.3 109 0 0 0 391 30
05/25/17 Video View Martinez, J.D. DET Fiers, Mike HOU 4 Minute Maid ... PL 427 105.1 33.5 97.0 137 6 3 0 418 27
05/25/17 Video View Centeno, Juan HOU Verlander, Justin DET 4 Minute Maid ... PL 365 97.0 32.6 113.4 97 0 1 0 364 19
05/25/17 Video View Gonzalez, Marwin HOU Verlander, Justin DET 4 Minute Maid ... PL 352 97.1 38.3 66.1 126 4 3 0 344 14
05/28/17 Video View Trumbo, Mark BAL Hoyt, James HOU 8 Minute Maid ... PL 408 103.4 28.5 75.6 95 0 0 0 408 29
06/10/17 Video View McCann, Brian HOU Nolasco, Ricky LAA 2 Minute Maid ... PL 384 100.1 29.9 70.0 91 0 0 0 383 28
06/11/17 Video View Springer, George HOU Chavez, Jesse LAA 3 Minute Maid ... PL 367 99.0 34.5 63.9 109 0 0 0 367 28
06/11/17 Video View Gurriel, Yulieski HOU Chavez, Jesse LAA 4 Minute Maid ... PL 386 99.2 29.8 105.0 94 0 0 0 386 25
06/11/17 Video View Young Jr., Eric LAA Feliz, Michael HOU 5 Minute Maid ... PL 387 100.3 30.8 71.7 98 0 1 0 387 29
06/12/17 Video View Mazara, Nomar TEX Diaz, Dayan HOU 8 Minute Maid ... PL 436 110.4 20.5 89.3 69 0 0 0 436 29
06/13/17 Video View Correa, Carlos HOU Martinez, Nick TEX 4 Minute Maid ... PL 380 103.5 23.4 106.5 62 0 1 0 380 11
06/14/17 Video View Gallo, Joey TEX Hoyt, James HOU 7 Minute Maid ... PL 459 110.2 25.1 88.3 99 0 0 0 458 30
06/16/17 Video View Betts, Mookie BOS Harris, Will HOU 8 Minute Maid ... PL 382 100.1 26.7 106.2 76 0 0 0 381 20
06/17/17 Video View Altuve, Jose HOU Porcello, Rick BOS 3 Minute Maid ... PL 419 105.2 33.0 99.0 135 0 1 0 418 30
06/17/17 Video View Beltran, Carlos HOU Porcello, Rick BOS 3 Minute Maid ... PL 379 101.0 29.9 63.2 86 0 1 0 378 29
06/18/17 Video View Bogaerts, Xander BOS Musgrove, Joe HOU 1 Minute Maid ... PL 432 107.2 22.8 90.1 78 0 0 0 432 28
06/18/17 Video View Springer, George HOU Hembree, Heath BOS 6 Minute Maid ... PL 414 103.3 29.8 101.1 107 0 0 0 413 30


About HitTracker | Contact Us
© 2006-2017 HitTrackerOnline